Aviation Digital Data Service (ADDS)

Output produced by METARs form (1549 UTC 09 February 2016)
found at http://www.aviationweather.gov/adds/metars/
 
METAR text: KSBP 091456Z 00000KT 10SM CLR 07/03 A3018 RMK AO2 SLP218 T00720033 53013
Conditions at: KSBP (SAN LUIS OBISPO , CA, US) observed 1456 UTC 09 February 2016
Temperature: 7.2°C (45°F)
Dewpoint: 3.3°C (38°F) [RH = 76%]
Pressure (altimeter): 30.18 inches Hg (1022.1 mb)
[Sea-level pressure: 1021.8 mb]
Winds: calm
Visibility: 10 or more miles (16+ km)
Ceiling: at least 12,000 feet AGL
Clouds: sky clear below 12,000 feet AGL
Weather: no significant weather observed at this time

METAR text: KSBP 091356Z 00000KT 10SM CLR 08/04 A3016 RMK AO2 SLP212 T00830039
Conditions at: KSBP (SAN LUIS OBISPO , CA, US) observed 1356 UTC 09 February 2016
Temperature: 8.3°C (47°F)
Dewpoint: 3.9°C (39°F) [RH = 74%]
Pressure (altimeter): 30.16 inches Hg (1021.4 mb)
[Sea-level pressure: 1021.2 mb]
Winds: calm
Visibility: 10 or more miles (16+ km)
Ceiling: at least 12,000 feet AGL
Clouds: sky clear below 12,000 feet AGL
Weather: no significant weather observed at this time

METAR text: KSBP 091256Z 00000KT 10SM CLR 09/04 A3014 RMK AO2 SLP205 T00890044
Conditions at: KSBP (SAN LUIS OBISPO , CA, US) observed 1256 UTC 09 February 2016
Temperature: 8.9°C (48°F)
Dewpoint: 4.4°C (40°F) [RH = 73%]
Pressure (altimeter): 30.14 inches Hg (1020.7 mb)
[Sea-level pressure: 1020.5 mb]
Winds: calm
Visibility: 10 or more miles (16+ km)
Ceiling: at least 12,000 feet AGL
Clouds: sky clear below 12,000 feet AGL
Weather: no significant weather observed at this time

METAR text: KSBP 091156Z 00000KT 10SM CLR 09/04 A3014 RMK AO2 SLP204 T00940044 10133 20089 55004
Conditions at: KSBP (SAN LUIS OBISPO , CA, US) observed 1156 UTC 09 February 2016
Temperature: 9.4°C (49°F)
Dewpoint: 4.4°C (40°F) [RH = 71%]
Pressure (altimeter): 30.14 inches Hg (1020.7 mb)
[Sea-level pressure: 1020.4 mb]
Winds: calm
Visibility: 10 or more miles (16+ km)
Ceiling: at least 12,000 feet AGL
Clouds: sky clear below 12,000 feet AGL
Weather: no significant weather observed at this time

METAR text: KSBP 091056Z 00000KT 10SM CLR 09/05 A3014 RMK AO2 SLP202 T00940050
Conditions at: KSBP (SAN LUIS OBISPO , CA, US) observed 1056 UTC 09 February 2016
Temperature: 9.4°C (49°F)
Dewpoint: 5.0°C (41°F) [RH = 74%]
Pressure (altimeter): 30.14 inches Hg (1020.7 mb)
[Sea-level pressure: 1020.2 mb]
Winds: calm
Visibility: 10 or more miles (16+ km)
Ceiling: at least 12,000 feet AGL
Clouds: sky clear below 12,000 feet AGL
Weather: no significant weather observed at this time

METAR text: KSBP 090956Z 09003KT 10SM CLR 11/06 A3014 RMK AO2 SLP205 T01060056
Conditions at: KSBP (SAN LUIS OBISPO , CA, US) observed 0956 UTC 09 February 2016
Temperature: 10.6°C (51°F)
Dewpoint: 5.6°C (42°F) [RH = 71%]
Pressure (altimeter): 30.14 inches Hg (1020.7 mb)
[Sea-level pressure: 1020.5 mb]
Winds: from the E (90 degrees) at 3 MPH (3 knots; 1.6 m/s)
Visibility: 10 or more miles (16+ km)
Ceiling: at least 12,000 feet AGL
Clouds: sky clear below 12,000 feet AGL
Weather: no significant weather observed at this time

METAR text: KSBP 090856Z 00000KT 10SM CLR 11/06 A3015 RMK AO2 SLP206 T01060056 55007
Conditions at: KSBP (SAN LUIS OBISPO , CA, US) observed 0856 UTC 09 February 2016
Temperature: 10.6°C (51°F)
Dewpoint: 5.6°C (42°F) [RH = 71%]
Pressure (altimeter): 30.15 inches Hg (1021.1 mb)
[Sea-level pressure: 1020.6 mb]
Winds: calm
Visibility: 10 or more miles (16+ km)
Ceiling: at least 12,000 feet AGL
Clouds: sky clear below 12,000 feet AGL
Weather: no significant weather observed at this time

METAR text: KSBP 090756Z 00000KT 10SM CLR 12/06 A3015 RMK AO2 SLP206 T01170061 403000083
Conditions at: KSBP (SAN LUIS OBISPO , CA, US) observed 0756 UTC 09 February 2016
Temperature: 11.7°C (53°F)
Dewpoint: 6.1°C (43°F) [RH = 68%]
Pressure (altimeter): 30.15 inches Hg (1021.1 mb)
[Sea-level pressure: 1020.6 mb]
Winds: calm
Visibility: 10 or more miles (16+ km)
Ceiling: at least 12,000 feet AGL
Clouds: sky clear below 12,000 feet AGL
Weather: no significant weather observed at this time